sensor_id;sensor_type;location;lat;lon;timestamp;P1;durP1;ratioP1;P2;durP2;ratioP2
21412;SDS011;10867;45.084;5.732;2024-02-14T00:00:39;24.73;;;19.73;;
21412;SDS011;10867;45.084;5.732;2024-02-14T00:03:27;26.73;;;21.10;;
21412;SDS011;10867;45.084;5.732;2024-02-14T00:06:12;26.42;;;22.65;;
21412;SDS011;10867;45.084;5.732;2024-02-14T00:08:59;19.77;;;14.65;;
21412;SDS011;10867;45.084;5.732;2024-02-14T00:11:44;13.80;;;10.70;;
21412;SDS011;10867;45.084;5.732;2024-02-14T00:14:28;11.77;;;9.82;;
21412;SDS011;10867;45.084;5.732;2024-02-14T00:17:13;13.68;;;11.50;;
21412;SDS011;10867;45.084;5.732;2024-02-14T00:19:58;12.18;;;10.48;;
21412;SDS011;10867;45.084;5.732;2024-02-14T00:22:42;14.63;;;12.52;;
21412;SDS011;10867;45.084;5.732;2024-02-14T00:25:30;13.32;;;10.52;;
21412;SDS011;10867;45.084;5.732;2024-02-14T00:28:15;11.75;;;9.85;;
21412;SDS011;10867;45.084;5.732;2024-02-14T00:31:12;10.32;;;9.00;;
21412;SDS011;10867;45.084;5.732;2024-02-14T00:33:59;11.95;;;9.65;;
21412;SDS011;10867;45.084;5.732;2024-02-14T00:37:04;10.13;;;8.95;;
21412;SDS011;10867;45.084;5.732;2024-02-14T00:39:54;8.60;;;7.70;;
21412;SDS011;10867;45.084;5.732;2024-02-14T00:42:44;10.25;;;8.63;;
21412;SDS011;10867;45.084;5.732;2024-02-14T00:45:39;16.13;;;14.40;;
21412;SDS011;10867;45.084;5.732;2024-02-14T00:48:26;13.32;;;11.93;;
21412;SDS011;10867;45.084;5.732;2024-02-14T00:51:17;14.43;;;11.02;;
21412;SDS011;10867;45.084;5.732;2024-02-14T00:54:04;10.68;;;9.57;;
21412;SDS011;10867;45.084;5.732;2024-02-14T00:57:09;11.18;;;9.70;;
21412;SDS011;10867;45.084;5.732;2024-02-14T01:00:14;12.18;;;9.57;;
21412;SDS011;10867;45.084;5.732;2024-02-14T01:03:06;10.63;;;9.40;;
21412;SDS011;10867;45.084;5.732;2024-02-14T01:05:58;11.80;;;9.90;;
21412;SDS011;10867;45.084;5.732;2024-02-14T01:08:45;11.43;;;9.63;;
21412;SDS011;10867;45.084;5.732;2024-02-14T01:11:30;14.27;;;9.90;;
21412;SDS011;10867;45.084;5.732;2024-02-14T01:14:25;11.25;;;10.00;;
21412;SDS011;10867;45.084;5.732;2024-02-14T01:17:12;10.35;;;9.25;;
21412;SDS011;10867;45.084;5.732;2024-02-14T01:19:59;13.90;;;10.25;;
21412;SDS011;10867;45.084;5.732;2024-02-14T01:22:44;12.68;;;10.35;;
21412;SDS011;10867;45.084;5.732;2024-02-14T01:25:37;11.75;;;9.60;;
21412;SDS011;10867;45.084;5.732;2024-02-14T01:28:22;12.02;;;8.60;;
21412;SDS011;10867;45.084;5.732;2024-02-14T01:31:08;10.13;;;8.50;;
21412;SDS011;10867;45.084;5.732;2024-02-14T01:34:05;12.10;;;8.63;;
21412;SDS011;10867;45.084;5.732;2024-02-14T01:37:02;8.90;;;7.68;;
21412;SDS011;10867;45.084;5.732;2024-02-14T01:39:53;9.00;;;7.70;;
21412;SDS011;10867;45.084;5.732;2024-02-14T01:42:40;10.93;;;8.68;;
21412;SDS011;10867;45.084;5.732;2024-02-14T01:45:29;11.48;;;9.20;;
21412;SDS011;10867;45.084;5.732;2024-02-14T01:48:27;11.68;;;8.60;;
21412;SDS011;10867;45.084;5.732;2024-02-14T01:51:19;10.43;;;8.95;;
21412;SDS011;10867;45.084;5.732;2024-02-14T01:54:14;10.68;;;8.68;;
21412;SDS011;10867;45.084;5.732;2024-02-14T01:57:03;12.90;;;9.60;;
21412;SDS011;10867;45.084;5.732;2024-02-14T01:59:55;11.15;;;8.73;;
21412;SDS011;10867;45.084;5.732;2024-02-14T02:02:41;11.82;;;9.02;;
21412;SDS011;10867;45.084;5.732;2024-02-14T02:05:28;10.00;;;8.52;;
21412;SDS011;10867;45.084;5.732;2024-02-14T02:08:20;12.20;;;10.82;;
21412;SDS011;10867;45.084;5.732;2024-02-14T02:11:18;11.95;;;10.27;;
21412;SDS011;10867;45.084;5.732;2024-02-14T02:14:08;13.63;;;10.75;;
21412;SDS011;10867;45.084;5.732;2024-02-14T02:17:03;11.88;;;9.27;;
21412;SDS011;10867;45.084;5.732;2024-02-14T02:20:01;11.85;;;9.30;;
21412;SDS011;10867;45.084;5.732;2024-02-14T02:22:49;12.77;;;8.70;;
21412;SDS011;10867;45.084;5.732;2024-02-14T02:25:36;11.02;;;9.07;;
21412;SDS011;10867;45.084;5.732;2024-02-14T02:28:23;11.18;;;8.70;;
21412;SDS011;10867;45.084;5.732;2024-02-14T02:31:15;10.65;;;8.98;;
21412;SDS011;10867;45.084;5.732;2024-02-14T02:34:05;11.15;;;8.35;;
21412;SDS011;10867;45.084;5.732;2024-02-14T02:36:52;12.35;;;9.05;;
21412;SDS011;10867;45.084;5.732;2024-02-14T02:39:47;10.82;;;9.50;;
21412;SDS011;10867;45.084;5.732;2024-02-14T02:42:32;10.18;;;9.10;;
21412;SDS011;10867;45.084;5.732;2024-02-14T02:45:19;9.93;;;8.88;;
21412;SDS011;10867;45.084;5.732;2024-02-14T02:48:05;11.55;;;9.30;;
21412;SDS011;10867;45.084;5.732;2024-02-14T02:50:52;11.23;;;9.85;;
21412;SDS011;10867;45.084;5.732;2024-02-14T02:53:37;11.48;;;9.73;;
21412;SDS011;10867;45.084;5.732;2024-02-14T02:56:24;10.73;;;9.43;;
21412;SDS011;10867;45.084;5.732;2024-02-14T02:59:11;10.20;;;9.02;;
21412;SDS011;10867;45.084;5.732;2024-02-14T03:01:59;12.13;;;8.98;;
21412;SDS011;10867;45.084;5.732;2024-02-14T03:04:44;10.68;;;9.10;;
21412;SDS011;10867;45.084;5.732;2024-02-14T03:07:29;11.00;;;9.10;;
21412;SDS011;10867;45.084;5.732;2024-02-14T03:10:16;11.50;;;9.65;;
21412;SDS011;10867;45.084;5.732;2024-02-14T03:13:01;12.20;;;9.57;;
21412;SDS011;10867;45.084;5.732;2024-02-14T03:15:46;10.77;;;8.98;;
21412;SDS011;10867;45.084;5.732;2024-02-14T03:18:32;11.48;;;9.20;;
21412;SDS011;10867;45.084;5.732;2024-02-14T03:21:16;10.05;;;8.73;;
21412;SDS011;10867;45.084;5.732;2024-02-14T03:24:01;14.27;;;9.98;;
21412;SDS011;10867;45.084;5.732;2024-02-14T03:26:48;13.02;;;9.73;;
21412;SDS011;10867;45.084;5.732;2024-02-14T03:29:35;12.03;;;9.13;;
21412;SDS011;10867;45.084;5.732;2024-02-14T03:32:33;10.83;;;8.77;;
21412;SDS011;10867;45.084;5.732;2024-02-14T03:35:21;10.18;;;8.70;;
21412;SDS011;10867;45.084;5.732;2024-02-14T03:38:05;10.48;;;9.05;;
21412;SDS011;10867;45.084;5.732;2024-02-14T03:40:52;9.50;;;8.50;;
21412;SDS011;10867;45.084;5.732;2024-02-14T03:43:40;10.77;;;8.65;;
21412;SDS011;10867;45.084;5.732;2024-02-14T03:46:27;11.25;;;9.30;;
21412;SDS011;10867;45.084;5.732;2024-02-14T03:49:15;11.00;;;8.32;;
21412;SDS011;10867;45.084;5.732;2024-02-14T03:52:03;10.95;;;9.48;;
21412;SDS011;10867;45.084;5.732;2024-02-14T03:55:11;14.15;;;11.10;;
21412;SDS011;10867;45.084;5.732;2024-02-14T03:57:59;38.00;;;30.52;;
21412;SDS011;10867;45.084;5.732;2024-02-14T04:00:46;26.58;;;22.02;;
21412;SDS011;10867;45.084;5.732;2024-02-14T04:03:34;18.40;;;15.73;;
21412;SDS011;10867;45.084;5.732;2024-02-14T04:06:21;13.45;;;11.73;;
21412;SDS011;10867;45.084;5.732;2024-02-14T04:09:08;12.93;;;9.80;;
21412;SDS011;10867;45.084;5.732;2024-02-14T04:11:53;10.90;;;8.67;;
21412;SDS011;10867;45.084;5.732;2024-02-14T04:14:40;10.93;;;9.20;;
21412;SDS011;10867;45.084;5.732;2024-02-14T04:17:25;12.90;;;10.32;;
21412;SDS011;10867;45.084;5.732;2024-02-14T04:20:15;8.93;;;7.25;;
21412;SDS011;10867;45.084;5.732;2024-02-14T04:23:00;9.38;;;7.15;;
21412;SDS011;10867;45.084;5.732;2024-02-14T04:25:47;9.70;;;7.10;;
21412;SDS011;10867;45.084;5.732;2024-02-14T04:28:41;6.90;;;6.20;;
21412;SDS011;10867;45.084;5.732;2024-02-14T04:31:46;10.05;;;8.90;;
21412;SDS011;10867;45.084;5.732;2024-02-14T04:34:33;11.88;;;10.68;;
21412;SDS011;10867;45.084;5.732;2024-02-14T04:37:20;10.07;;;8.77;;
21412;SDS011;10867;45.084;5.732;2024-02-14T04:40:05;8.52;;;7.60;;
21412;SDS011;10867;45.084;5.732;2024-02-14T04:42:50;8.27;;;6.82;;
21412;SDS011;10867;45.084;5.732;2024-02-14T04:45:37;10.05;;;8.23;;
21412;SDS011;10867;45.084;5.732;2024-02-14T04:48:24;11.17;;;8.30;;
21412;SDS011;10867;45.084;5.732;2024-02-14T04:51:17;9.70;;;8.43;;
21412;SDS011;10867;45.084;5.732;2024-02-14T04:54:06;8.80;;;7.53;;
21412;SDS011;10867;45.084;5.732;2024-02-14T04:57:02;11.50;;;8.65;;
21412;SDS011;10867;45.084;5.732;2024-02-14T04:59:48;9.57;;;8.40;;
21412;SDS011;10867;45.084;5.732;2024-02-14T05:02:32;12.97;;;10.90;;
21412;SDS011;10867;45.084;5.732;2024-02-14T05:05:24;13.15;;;10.40;;
21412;SDS011;10867;45.084;5.732;2024-02-14T05:08:12;10.65;;;8.70;;
21412;SDS011;10867;45.084;5.732;2024-02-14T05:10:57;17.05;;;10.07;;
21412;SDS011;10867;45.084;5.732;2024-02-14T05:13:41;11.88;;;8.75;;
21412;SDS011;10867;45.084;5.732;2024-02-14T05:16:29;11.32;;;8.60;;
21412;SDS011;10867;45.084;5.732;2024-02-14T05:19:17;10.27;;;8.13;;
21412;SDS011;10867;45.084;5.732;2024-02-14T05:22:05;14.05;;;10.43;;
21412;SDS011;10867;45.084;5.732;2024-02-14T05:24:54;13.55;;;11.50;;
21412;SDS011;10867;45.084;5.732;2024-02-14T05:27:42;14.80;;;10.37;;
21412;SDS011;10867;45.084;5.732;2024-02-14T05:30:29;16.60;;;10.52;;
21412;SDS011;10867;45.084;5.732;2024-02-14T05:33:24;14.57;;;10.38;;
21412;SDS011;10867;45.084;5.732;2024-02-14T05:36:14;12.67;;;10.00;;
21412;SDS011;10867;45.084;5.732;2024-02-14T05:39:06;11.10;;;9.18;;
21412;SDS011;10867;45.084;5.732;2024-02-14T05:41:53;14.15;;;10.48;;
21412;SDS011;10867;45.084;5.732;2024-02-14T05:44:38;14.50;;;9.40;;
21412;SDS011;10867;45.084;5.732;2024-02-14T05:47:24;11.13;;;8.80;;
21412;SDS011;10867;45.084;5.732;2024-02-14T05:50:09;9.85;;;8.13;;
21412;SDS011;10867;45.084;5.732;2024-02-14T05:52:55;8.52;;;7.55;;
21412;SDS011;10867;45.084;5.732;2024-02-14T05:55:42;10.50;;;7.60;;
21412;SDS011;10867;45.084;5.732;2024-02-14T05:58:29;8.43;;;7.40;;
21412;SDS011;10867;45.084;5.732;2024-02-14T06:01:15;8.82;;;7.07;;
21412;SDS011;10867;45.084;5.732;2024-02-14T06:04:00;10.00;;;7.30;;
21412;SDS011;10867;45.084;5.732;2024-02-14T06:06:47;8.73;;;6.93;;
21412;SDS011;10867;45.084;5.732;2024-02-14T06:09:32;95.97;;;62.88;;
21412;SDS011;10867;45.084;5.732;2024-02-14T06:12:17;24.40;;;17.75;;
21412;SDS011;10867;45.084;5.732;2024-02-14T06:15:01;48.75;;;32.10;;
21412;SDS011;10867;45.084;5.732;2024-02-14T06:17:49;46.03;;;29.88;;
21412;SDS011;10867;45.084;5.732;2024-02-14T06:20:40;43.78;;;29.85;;
21412;SDS011;10867;45.084;5.732;2024-02-14T06:23:25;30.30;;;20.60;;
21412;SDS011;10867;45.084;5.732;2024-02-14T06:26:12;31.05;;;21.80;;
21412;SDS011;10867;45.084;5.732;2024-02-14T06:29:01;16.80;;;12.88;;
21412;SDS011;10867;45.084;5.732;2024-02-14T06:31:46;14.05;;;11.77;;
21412;SDS011;10867;45.084;5.732;2024-02-14T06:34:31;14.13;;;12.45;;
21412;SDS011;10867;45.084;5.732;2024-02-14T06:37:15;13.00;;;9.70;;
21412;SDS011;10867;45.084;5.732;2024-02-14T06:40:00;17.27;;;12.50;;
21412;SDS011;10867;45.084;5.732;2024-02-14T06:43:06;13.95;;;11.52;;
21412;SDS011;10867;45.084;5.732;2024-02-14T06:45:57;11.80;;;10.18;;
21412;SDS011;10867;45.084;5.732;2024-02-14T06:48:44;11.48;;;9.30;;
21412;SDS011;10867;45.084;5.732;2024-02-14T06:51:28;12.30;;;9.23;;
21412;SDS011;10867;45.084;5.732;2024-02-14T06:54:14;12.88;;;9.50;;
21412;SDS011;10867;45.084;5.732;2024-02-14T06:57:00;11.27;;;9.05;;
21412;SDS011;10867;45.084;5.732;2024-02-14T06:59:45;11.15;;;8.98;;
21412;SDS011;10867;45.084;5.732;2024-02-14T07:02:30;10.43;;;8.20;;
21412;SDS011;10867;45.084;5.732;2024-02-14T07:05:35;10.23;;;8.63;;
21412;SDS011;10867;45.084;5.732;2024-02-14T07:08:19;9.50;;;7.80;;
21412;SDS011;10867;45.084;5.732;2024-02-14T07:11:28;9.33;;;7.20;;
21412;SDS011;10867;45.084;5.732;2024-02-14T07:21:17;9.80;;;7.40;;
21412;SDS011;10867;45.084;5.732;2024-02-14T07:27:25;12.80;;;7.75;;
21412;SDS011;10867;45.084;5.732;2024-02-14T07:30:18;16.20;;;8.40;;
21412;SDS011;10867;45.084;5.732;2024-02-14T07:33:19;11.32;;;8.77;;
21412;SDS011;10867;45.084;5.732;2024-02-14T07:36:13;12.95;;;10.10;;
21412;SDS011;10867;45.084;5.732;2024-02-14T07:38:58;14.35;;;10.60;;
21412;SDS011;10867;45.084;5.732;2024-02-14T07:41:43;16.38;;;12.32;;
21412;SDS011;10867;45.084;5.732;2024-02-14T07:44:56;15.07;;;12.02;;
21412;SDS011;10867;45.084;5.732;2024-02-14T07:47:42;17.95;;;14.65;;
21412;SDS011;10867;45.084;5.732;2024-02-14T07:50:38;20.27;;;16.50;;
21412;SDS011;10867;45.084;5.732;2024-02-14T07:56:34;18.88;;;15.52;;
21412;SDS011;10867;45.084;5.732;2024-02-14T08:09:41;11.05;;;9.35;;
21412;SDS011;10867;45.084;5.732;2024-02-14T08:12:07;10.00;;;8.40;;
21412;SDS011;10867;45.084;5.732;2024-02-14T08:14:33;10.80;;;9.23;;
21412;SDS011;10867;45.084;5.732;2024-02-14T08:16:59;11.17;;;9.40;;
21412;SDS011;10867;45.084;5.732;2024-02-14T08:19:25;11.27;;;8.70;;
21412;SDS011;10867;45.084;5.732;2024-02-14T08:21:52;10.23;;;8.70;;
21412;SDS011;10867;45.084;5.732;2024-02-14T08:24:24;9.23;;;8.00;;
21412;SDS011;10867;45.084;5.732;2024-02-14T08:26:50;12.35;;;8.68;;
21412;SDS011;10867;45.084;5.732;2024-02-14T08:29:16;11.98;;;8.63;;
21412;SDS011;10867;45.084;5.732;2024-02-14T08:31:43;9.90;;;8.00;;
21412;SDS011;10867;45.084;5.732;2024-02-14T08:34:09;9.67;;;7.43;;
21412;SDS011;10867;45.084;5.732;2024-02-14T08:36:35;9.17;;;6.70;;
21412;SDS011;10867;45.084;5.732;2024-02-14T08:39:09;6.85;;;5.50;;
21412;SDS011;10867;45.084;5.732;2024-02-14T08:41:38;6.82;;;5.40;;
21412;SDS011;10867;45.084;5.732;2024-02-14T08:44:06;6.22;;;5.18;;
21412;SDS011;10867;45.084;5.732;2024-02-14T08:46:34;7.15;;;5.40;;
21412;SDS011;10867;45.084;5.732;2024-02-14T08:49:03;5.88;;;5.00;;
21412;SDS011;10867;45.084;5.732;2024-02-14T08:51:35;8.65;;;5.53;;
21412;SDS011;10867;45.084;5.732;2024-02-14T08:54:25;9.10;;;5.18;;
21412;SDS011;10867;45.084;5.732;2024-02-14T08:57:20;7.10;;;4.97;;
21412;SDS011;10867;45.084;5.732;2024-02-14T09:00:27;7.68;;;5.75;;
21412;SDS011;10867;45.084;5.732;2024-02-14T09:03:03;6.60;;;4.90;;
21412;SDS011;10867;45.084;5.732;2024-02-14T09:05:39;8.70;;;5.65;;
21412;SDS011;10867;45.084;5.732;2024-02-14T09:08:13;9.85;;;6.70;;
21412;SDS011;10867;45.084;5.732;2024-02-14T09:10:58;9.02;;;5.97;;
21412;SDS011;10867;45.084;5.732;2024-02-14T09:14:12;7.13;;;5.60;;
21412;SDS011;10867;45.084;5.732;2024-02-14T09:23:43;5.77;;;4.10;;
21412;SDS011;10867;45.084;5.732;2024-02-14T09:26:51;7.88;;;4.88;;
21412;SDS011;10867;45.084;5.732;2024-02-14T09:33:36;5.40;;;4.07;;
21412;SDS011;10867;45.084;5.732;2024-02-14T09:57:11;4.27;;;3.80;;
21412;SDS011;10867;45.084;5.732;2024-02-14T10:28:17;4.28;;;3.10;;
21412;SDS011;10867;45.084;5.732;2024-02-14T10:31:30;3.00;;;2.70;;
21412;SDS011;10867;45.084;5.732;2024-02-14T10:34:31;4.37;;;2.40;;
21412;SDS011;10867;45.084;5.732;2024-02-14T10:51:06;5.30;;;2.50;;
21412;SDS011;10867;45.084;5.732;2024-02-14T11:07:47;4.93;;;3.00;;
21412;SDS011;10867;45.084;5.732;2024-02-14T11:11:02;4.60;;;2.87;;
21412;SDS011;10867;45.084;5.732;2024-02-14T11:17:38;2.72;;;2.30;;
21412;SDS011;10867;45.084;5.732;2024-02-14T11:20:47;3.55;;;2.33;;
21412;SDS011;10867;45.084;5.732;2024-02-14T11:27:01;3.25;;;2.40;;
21412;SDS011;10867;45.084;5.732;2024-02-14T11:43:53;2.85;;;1.88;;
21412;SDS011;10867;45.084;5.732;2024-02-14T11:46:45;4.87;;;1.93;;
21412;SDS011;10867;45.084;5.732;2024-02-14T11:49:54;4.32;;;2.10;;
21412;SDS011;10867;45.084;5.732;2024-02-14T11:59:59;2.45;;;2.08;;
21412;SDS011;10867;45.084;5.732;2024-02-14T12:13:21;4.17;;;2.23;;
21412;SDS011;10867;45.084;5.732;2024-02-14T12:36:43;2.50;;;1.77;;
21412;SDS011;10867;45.084;5.732;2024-02-14T12:43:29;4.23;;;1.77;;
21412;SDS011;10867;45.084;5.732;2024-02-14T12:46:34;3.58;;;1.95;;
21412;SDS011;10867;45.084;5.732;2024-02-14T12:53:06;2.88;;;1.67;;
21412;SDS011;10867;45.084;5.732;2024-02-14T12:55:57;3.60;;;1.40;;
21412;SDS011;10867;45.084;5.732;2024-02-14T13:12:21;1.70;;;1.20;;
21412;SDS011;10867;45.084;5.732;2024-02-14T13:15:54;1.35;;;1.17;;
21412;SDS011;10867;45.084;5.732;2024-02-14T13:19:05;1.88;;;1.30;;
21412;SDS011;10867;45.084;5.732;2024-02-14T13:29:15;1.52;;;1.20;;
21412;SDS011;10867;45.084;5.732;2024-02-14T15:54:50;3.72;;;1.40;;
21412;SDS011;10867;45.084;5.732;2024-02-14T16:01:17;3.40;;;1.40;;
21412;SDS011;10867;45.084;5.732;2024-02-14T16:04:24;3.30;;;1.25;;
21412;SDS011;10867;45.084;5.732;2024-02-14T16:07:36;2.75;;;1.33;;
21412;SDS011;10867;45.084;5.732;2024-02-14T16:10:36;3.97;;;1.40;;
21412;SDS011;10867;45.084;5.732;2024-02-14T16:13:32;3.08;;;1.27;;
21412;SDS011;10867;45.084;5.732;2024-02-14T16:19:00;4.07;;;1.40;;
21412;SDS011;10867;45.084;5.732;2024-02-14T16:21:27;2.92;;;1.50;;
21412;SDS011;10867;45.084;5.732;2024-02-14T16:23:54;2.85;;;1.60;;
21412;SDS011;10867;45.084;5.732;2024-02-14T16:26:21;2.92;;;1.63;;
21412;SDS011;10867;45.084;5.732;2024-02-14T16:28:49;4.93;;;1.50;;
21412;SDS011;10867;45.084;5.732;2024-02-14T16:31:35;4.55;;;1.70;;
21412;SDS011;10867;45.084;5.732;2024-02-14T16:34:09;3.42;;;1.73;;
21412;SDS011;10867;45.084;5.732;2024-02-14T16:36:35;4.38;;;1.70;;
21412;SDS011;10867;45.084;5.732;2024-02-14T16:39:06;7.05;;;1.90;;
21412;SDS011;10867;45.084;5.732;2024-02-14T16:41:33;3.75;;;1.45;;
21412;SDS011;10867;45.084;5.732;2024-02-14T16:44:02;4.03;;;2.63;;
21412;SDS011;10867;45.084;5.732;2024-02-14T16:46:30;7.47;;;3.80;;
21412;SDS011;10867;45.084;5.732;2024-02-14T16:48:59;4.05;;;3.05;;
21412;SDS011;10867;45.084;5.732;2024-02-14T16:51:26;4.82;;;2.67;;
21412;SDS011;10867;45.084;5.732;2024-02-14T16:53:52;4.13;;;2.28;;
21412;SDS011;10867;45.084;5.732;2024-02-14T16:56:18;3.80;;;1.80;;
21412;SDS011;10867;45.084;5.732;2024-02-14T16:58:46;3.13;;;1.77;;
21412;SDS011;10867;45.084;5.732;2024-02-14T17:01:22;4.18;;;1.83;;
21412;SDS011;10867;45.084;5.732;2024-02-14T17:03:52;2.30;;;1.63;;
21412;SDS011;10867;45.084;5.732;2024-02-14T17:06:18;12.40;;;6.55;;
21412;SDS011;10867;45.084;5.732;2024-02-14T17:08:44;12.50;;;7.37;;
21412;SDS011;10867;45.084;5.732;2024-02-14T17:11:14;26.07;;;15.37;;
21412;SDS011;10867;45.084;5.732;2024-02-14T17:13:43;18.38;;;13.48;;
21412;SDS011;10867;45.084;5.732;2024-02-14T17:16:10;19.20;;;13.07;;
21412;SDS011;10867;45.084;5.732;2024-02-14T17:18:36;11.43;;;6.68;;
21412;SDS011;10867;45.084;5.732;2024-02-14T17:21:04;11.25;;;8.75;;
21412;SDS011;10867;45.084;5.732;2024-02-14T17:23:30;11.20;;;6.68;;
21412;SDS011;10867;45.084;5.732;2024-02-14T17:25:59;12.10;;;6.30;;
21412;SDS011;10867;45.084;5.732;2024-02-14T17:32:12;10.82;;;8.00;;
21412;SDS011;10867;45.084;5.732;2024-02-14T17:38:33;13.75;;;6.68;;
21412;SDS011;10867;45.084;5.732;2024-02-14T17:44:40;9.13;;;4.20;;
21412;SDS011;10867;45.084;5.732;2024-02-14T17:47:14;5.40;;;3.78;;
21412;SDS011;10867;45.084;5.732;2024-02-14T17:50:31;4.18;;;2.88;;
21412;SDS011;10867;45.084;5.732;2024-02-14T17:53:21;14.97;;;11.47;;
21412;SDS011;10867;45.084;5.732;2024-02-14T17:55:54;8.85;;;7.30;;
21412;SDS011;10867;45.084;5.732;2024-02-14T17:58:26;7.80;;;4.13;;
21412;SDS011;10867;45.084;5.732;2024-02-14T18:00:54;4.97;;;3.40;;
21412;SDS011;10867;45.084;5.732;2024-02-14T18:03:20;4.75;;;3.38;;
21412;SDS011;10867;45.084;5.732;2024-02-14T18:05:59;5.50;;;2.97;;
21412;SDS011;10867;45.084;5.732;2024-02-14T18:08:25;4.50;;;2.75;;
21412;SDS011;10867;45.084;5.732;2024-02-14T18:11:10;3.40;;;2.70;;
21412;SDS011;10867;45.084;5.732;2024-02-14T18:16:50;9.20;;;4.70;;
21412;SDS011;10867;45.084;5.732;2024-02-14T18:19:19;7.18;;;5.00;;
21412;SDS011;10867;45.084;5.732;2024-02-14T18:21:49;10.15;;;6.47;;
21412;SDS011;10867;45.084;5.732;2024-02-14T18:24:30;14.75;;;8.65;;
21412;SDS011;10867;45.084;5.732;2024-02-14T18:27:02;14.88;;;7.82;;
21412;SDS011;10867;45.084;5.732;2024-02-14T18:29:48;13.88;;;8.35;;
21412;SDS011;10867;45.084;5.732;2024-02-14T18:32:24;16.70;;;10.10;;
21412;SDS011;10867;45.084;5.732;2024-02-14T18:34:50;16.98;;;11.00;;
21412;SDS011;10867;45.084;5.732;2024-02-14T18:37:21;18.30;;;11.32;;
21412;SDS011;10867;45.084;5.732;2024-02-14T18:39:50;17.33;;;12.45;;
21412;SDS011;10867;45.084;5.732;2024-02-14T18:42:38;17.33;;;12.07;;
21412;SDS011;10867;45.084;5.732;2024-02-14T18:45:17;16.98;;;11.20;;
21412;SDS011;10867;45.084;5.732;2024-02-14T18:47:53;11.18;;;7.70;;
21412;SDS011;10867;45.084;5.732;2024-02-14T18:50:29;9.80;;;6.53;;
21412;SDS011;10867;45.084;5.732;2024-02-14T18:52:57;9.85;;;6.40;;
21412;SDS011;10867;45.084;5.732;2024-02-14T18:55:24;8.18;;;6.72;;
21412;SDS011;10867;45.084;5.732;2024-02-14T18:57:52;9.82;;;6.38;;
21412;SDS011;10867;45.084;5.732;2024-02-14T19:00:48;9.93;;;7.83;;
21412;SDS011;10867;45.084;5.732;2024-02-14T19:04:12;14.88;;;9.43;;
21412;SDS011;10867;45.084;5.732;2024-02-14T19:10:44;10.32;;;9.05;;
21412;SDS011;10867;45.084;5.732;2024-02-14T19:17:13;11.88;;;9.15;;
21412;SDS011;10867;45.084;5.732;2024-02-14T19:20:22;8.95;;;8.00;;
21412;SDS011;10867;45.084;5.732;2024-02-14T19:22:56;9.75;;;8.20;;
21412;SDS011;10867;45.084;5.732;2024-02-14T19:25:45;9.98;;;8.20;;
21412;SDS011;10867;45.084;5.732;2024-02-14T19:28:47;10.40;;;8.70;;
21412;SDS011;10867;45.084;5.732;2024-02-14T19:31:33;10.88;;;8.90;;
21412;SDS011;10867;45.084;5.732;2024-02-14T19:34:01;10.30;;;8.50;;
21412;SDS011;10867;45.084;5.732;2024-02-14T19:36:33;15.02;;;12.65;;
21412;SDS011;10867;45.084;5.732;2024-02-14T19:39:01;14.73;;;11.05;;
21412;SDS011;10867;45.084;5.732;2024-02-14T19:41:32;11.65;;;9.80;;
21412;SDS011;10867;45.084;5.732;2024-02-14T19:44:25;13.80;;;11.40;;
21412;SDS011;10867;45.084;5.732;2024-02-14T19:46:56;14.30;;;11.30;;
21412;SDS011;10867;45.084;5.732;2024-02-14T19:49:33;13.85;;;11.82;;
21412;SDS011;10867;45.084;5.732;2024-02-14T19:52:06;17.60;;;13.27;;
21412;SDS011;10867;45.084;5.732;2024-02-14T19:54:36;13.18;;;11.40;;
21412;SDS011;10867;45.084;5.732;2024-02-14T19:57:03;13.95;;;11.75;;
21412;SDS011;10867;45.084;5.732;2024-02-14T19:59:39;15.38;;;10.68;;
21412;SDS011;10867;45.084;5.732;2024-02-14T20:02:12;14.02;;;10.40;;
21412;SDS011;10867;45.084;5.732;2024-02-14T20:04:38;15.50;;;10.88;;
21412;SDS011;10867;45.084;5.732;2024-02-14T20:07:04;13.45;;;10.70;;
21412;SDS011;10867;45.084;5.732;2024-02-14T20:09:33;14.27;;;11.18;;
21412;SDS011;10867;45.084;5.732;2024-02-14T20:12:01;15.10;;;11.43;;
21412;SDS011;10867;45.084;5.732;2024-02-14T20:14:44;14.18;;;11.13;;
21412;SDS011;10867;45.084;5.732;2024-02-14T20:17:15;12.30;;;9.90;;
21412;SDS011;10867;45.084;5.732;2024-02-14T20:19:44;19.23;;;17.23;;
21412;SDS011;10867;45.084;5.732;2024-02-14T20:22:20;23.83;;;21.38;;
21412;SDS011;10867;45.084;5.732;2024-02-14T20:25:24;19.95;;;16.83;;
21412;SDS011;10867;45.084;5.732;2024-02-14T20:27:52;21.30;;;15.52;;
21412;SDS011;10867;45.084;5.732;2024-02-14T20:30:28;20.65;;;16.23;;
21412;SDS011;10867;45.084;5.732;2024-02-14T20:32:54;17.98;;;14.82;;
21412;SDS011;10867;45.084;5.732;2024-02-14T20:35:22;17.65;;;14.60;;
21412;SDS011;10867;45.084;5.732;2024-02-14T20:37:48;17.92;;;14.02;;
21412;SDS011;10867;45.084;5.732;2024-02-14T20:40:15;19.80;;;14.75;;
21412;SDS011;10867;45.084;5.732;2024-02-14T20:43:09;16.70;;;13.50;;
21412;SDS011;10867;45.084;5.732;2024-02-14T20:46:15;15.45;;;13.00;;
21412;SDS011;10867;45.084;5.732;2024-02-14T20:49:24;17.52;;;14.75;;
21412;SDS011;10867;45.084;5.732;2024-02-14T20:58:39;22.38;;;18.27;;
21412;SDS011;10867;45.084;5.732;2024-02-14T21:01:10;16.55;;;13.20;;
21412;SDS011;10867;45.084;5.732;2024-02-14T21:03:58;26.42;;;21.38;;
21412;SDS011;10867;45.084;5.732;2024-02-14T21:06:36;23.58;;;20.65;;
21412;SDS011;10867;45.084;5.732;2024-02-14T21:12:09;18.00;;;13.73;;
21412;SDS011;10867;45.084;5.732;2024-02-14T21:15:04;16.45;;;12.20;;
21412;SDS011;10867;45.084;5.732;2024-02-14T21:17:53;14.45;;;10.68;;
21412;SDS011;10867;45.084;5.732;2024-02-14T21:21:01;11.93;;;10.23;;
21412;SDS011;10867;45.084;5.732;2024-02-14T21:24:08;15.20;;;12.17;;
21412;SDS011;10867;45.084;5.732;2024-02-14T21:26:42;13.98;;;11.70;;
21412;SDS011;10867;45.084;5.732;2024-02-14T21:39:41;18.30;;;13.77;;
21412;SDS011;10867;45.084;5.732;2024-02-14T21:42:07;15.27;;;12.50;;
21412;SDS011;10867;45.084;5.732;2024-02-14T21:44:33;15.20;;;12.50;;
21412;SDS011;10867;45.084;5.732;2024-02-14T21:47:00;20.42;;;14.95;;
21412;SDS011;10867;45.084;5.732;2024-02-14T21:49:51;17.73;;;14.38;;
21412;SDS011;10867;45.084;5.732;2024-02-14T21:59:54;20.43;;;16.20;;
21412;SDS011;10867;45.084;5.732;2024-02-14T22:02:20;20.87;;;16.17;;
21412;SDS011;10867;45.084;5.732;2024-02-14T22:04:47;25.00;;;18.27;;
21412;SDS011;10867;45.084;5.732;2024-02-14T22:07:13;20.40;;;17.60;;
21412;SDS011;10867;45.084;5.732;2024-02-14T22:09:39;22.98;;;17.00;;
21412;SDS011;10867;45.084;5.732;2024-02-14T22:12:06;21.05;;;17.10;;
21412;SDS011;10867;45.084;5.732;2024-02-14T22:14:33;20.85;;;16.90;;
21412;SDS011;10867;45.084;5.732;2024-02-14T22:17:00;18.48;;;16.58;;
21412;SDS011;10867;45.084;5.732;2024-02-14T22:19:27;19.60;;;16.52;;
21412;SDS011;10867;45.084;5.732;2024-02-14T22:21:53;28.95;;;20.40;;
21412;SDS011;10867;45.084;5.732;2024-02-14T22:24:19;26.90;;;23.17;;
21412;SDS011;10867;45.084;5.732;2024-02-14T22:26:47;27.45;;;23.08;;
21412;SDS011;10867;45.084;5.732;2024-02-14T22:29:13;21.48;;;18.45;;
21412;SDS011;10867;45.084;5.732;2024-02-14T22:31:39;21.73;;;17.95;;
21412;SDS011;10867;45.084;5.732;2024-02-14T22:34:05;25.23;;;17.75;;
21412;SDS011;10867;45.084;5.732;2024-02-14T22:36:33;20.95;;;15.68;;
21412;SDS011;10867;45.084;5.732;2024-02-14T22:38:59;14.48;;;11.82;;
21412;SDS011;10867;45.084;5.732;2024-02-14T22:41:25;11.82;;;10.52;;
21412;SDS011;10867;45.084;5.732;2024-02-14T22:43:51;15.32;;;13.07;;
21412;SDS011;10867;45.084;5.732;2024-02-14T22:46:20;17.35;;;13.93;;